createdAt,value
2022-08-11T00:02:35.644Z,90.11
2022-08-11T00:05:08.232Z,90.09
2022-08-11T00:07:43.505Z,90.36
2022-08-11T00:10:14.171Z,90.41
2022-08-11T00:12:43.427Z,90.29
2022-08-11T00:15:12.680Z,91.09
2022-08-11T00:17:43.007Z,91.31
2022-08-11T00:20:16.524Z,91.39
2022-08-11T00:22:48.152Z,91.78
2022-08-11T00:25:19.312Z,92.85
2022-08-11T00:27:49.383Z,93.43
2022-08-11T00:30:18.038Z,93.45
2022-08-11T00:32:54.355Z,92.80
2022-08-11T00:35:54.228Z,92.68
2022-08-11T00:38:15.292Z,93.15
2022-08-11T00:40:45.707Z,93.75
2022-08-11T00:43:22.345Z,93.10
2022-08-11T00:46:12.090Z,92.80
2022-08-11T00:48:53.550Z,92.71
2022-08-11T00:51:27.023Z,92.79
2022-08-11T00:54:33.786Z,93.41
2022-08-11T00:57:43.276Z,93.39
2022-08-11T01:00:16.589Z,93.99
2022-08-11T01:03:03.637Z,93.66
2022-08-11T01:06:07.795Z,94.07
2022-08-11T01:09:17.875Z,93.42
2022-08-11T01:12:07.240Z,93.85
2022-08-11T01:14:52.171Z,93.87
2022-08-11T01:18:07.842Z,94.52
2022-08-11T01:21:05.343Z,94.10
2022-08-11T01:24:05.839Z,93.95
2022-08-11T01:27:19.457Z,94.41
2022-08-11T01:30:09.624Z,93.57
2022-08-11T01:33:10.264Z,94.47
2022-08-11T01:36:19.080Z,94.60
2022-08-11T01:39:23.481Z,94.51
2022-08-11T01:42:40.430Z,95.10
2022-08-11T01:45:14.056Z,95.25
2022-08-11T01:47:54.645Z,95.77
2022-08-11T01:50:30.243Z,96.24
2022-08-11T01:53:10.370Z,96.76
2022-08-11T01:55:51.521Z,97.17
2022-08-11T01:58:36.255Z,97.22
2022-08-11T02:01:32.742Z,96.25
2022-08-11T02:04:08.152Z,96.34
2022-08-11T02:06:57.261Z,97.64
2022-08-11T02:09:49.751Z,97.09
2022-08-11T02:12:28.758Z,97.33
2022-08-11T02:15:05.812Z,97.39
2022-08-11T02:17:43.341Z,97.02
2022-08-11T02:20:35.731Z,97.19
2022-08-11T02:24:06.706Z,97.09
2022-08-11T02:26:21.204Z,96.90
2022-08-11T02:29:03.246Z,96.76
2022-08-11T02:32:24.025Z,96.64
2022-08-11T02:35:00.221Z,95.90
2022-08-11T02:37:38.306Z,96.30
2022-08-11T02:40:19.288Z,95.83
2022-08-11T02:42:59.419Z,95.39
2022-08-11T02:45:36.354Z,95.83
2022-08-11T02:48:27.798Z,96.71
2022-08-11T02:51:06.227Z,96.93
2022-08-11T02:53:40.933Z,97.39
2022-08-11T02:56:15.718Z,97.44
2022-08-11T02:59:12.984Z,98.50
2022-08-11T03:01:49.307Z,98.21
2022-08-11T03:04:24.282Z,97.98
2022-08-11T03:07:28.639Z,98.61
2022-08-11T03:10:10.011Z,99.25
2022-08-11T03:13:02.351Z,98.89
2022-08-11T03:15:51.309Z,98.67
2022-08-11T03:18:26.912Z,98.97
2022-08-11T03:21:00.159Z,99.27
2022-08-11T03:23:32.408Z,99.13
2022-08-11T03:26:04.919Z,99.11
2022-08-11T03:28:36.433Z,99.23
2022-08-11T03:31:19.285Z,99.81
2022-08-11T03:34:06.832Z,99.07
2022-08-11T03:37:40.645Z,99.06
2022-08-11T03:40:43.168Z,99.94
2022-08-11T03:43:23.858Z,100.00
2022-08-11T03:45:59.717Z,100.00
2022-08-11T03:48:42.199Z,99.96
2022-08-11T03:51:18.854Z,100.00
2022-08-11T03:54:02.935Z,99.31
2022-08-11T03:57:00.647Z,100.00
2022-08-11T03:59:53.651Z,99.84
2022-08-11T04:02:40.583Z,100.00
2022-08-11T04:05:56.387Z,100.00
2022-08-11T04:08:59.197Z,99.05
2022-08-11T04:11:49.063Z,98.96
2022-08-11T04:15:01.066Z,99.70
2022-08-11T04:18:00.674Z,99.27
2022-08-11T04:21:16.677Z,98.81
2022-08-11T04:24:35.439Z,98.18
2022-08-11T04:27:08.861Z,98.05
2022-08-11T04:30:05.889Z,98.76
2022-08-11T04:33:20.924Z,98.72
2022-08-11T04:35:55.295Z,98.13
2022-08-11T04:38:46.624Z,97.82
2022-08-11T04:42:31.408Z,97.66
2022-08-11T04:45:27.704Z,97.21
2022-08-11T04:48:32.272Z,96.83
2022-08-11T04:51:35.882Z,96.38
2022-08-11T04:54:36.476Z,96.37
2022-08-11T04:57:41.592Z,96.83
2022-08-11T05:00:29.780Z,96.61
2022-08-11T05:03:35.586Z,96.12
2022-08-11T05:06:51.911Z,95.90
2022-08-11T05:10:05.096Z,95.35
2022-08-11T05:12:38.216Z,95.14
2022-08-11T05:15:24.878Z,94.47
2022-08-11T05:18:14.118Z,94.81
2022-08-11T05:21:05.856Z,94.15
2022-08-11T05:23:53.295Z,94.80
2022-08-11T05:26:47.780Z,93.76
2022-08-11T05:29:47.625Z,93.04
2022-08-11T05:32:35.408Z,93.33
2022-08-11T05:35:07.606Z,93.11
2022-08-11T05:37:53.442Z,92.41
2022-08-11T05:40:39.245Z,92.15
2022-08-11T05:43:30.964Z,92.16
2022-08-11T05:46:17.667Z,91.38
2022-08-11T05:49:04.951Z,90.66
2022-08-11T05:52:05.509Z,90.50
2022-08-11T05:54:59.564Z,89.42
2022-08-11T05:57:44.038Z,88.93
2022-08-11T06:00:20.442Z,88.74
2022-08-11T06:02:55.562Z,87.98
2022-08-11T06:05:25.204Z,87.35
2022-08-11T06:07:57.549Z,87.01
2022-08-11T06:10:28.450Z,85.14
2022-08-11T06:12:57.338Z,85.63
2022-08-11T06:15:27.084Z,84.16
2022-08-11T06:17:56.840Z,83.09
2022-08-11T06:20:25.712Z,82.44
2022-08-11T06:23:00.914Z,82.80
2022-08-11T06:25:36.036Z,79.86
2022-08-11T06:28:07.085Z,77.78
2022-08-11T06:30:40.589Z,76.74
2022-08-11T06:33:11.633Z,75.86
2022-08-11T06:35:53.440Z,74.95
2022-08-11T06:38:39.456Z,72.87
2022-08-11T06:41:32.014Z,73.91
2022-08-11T06:44:24.331Z,73.08
2022-08-11T06:46:56.068Z,72.24
2022-08-11T06:49:51.370Z,70.87
2022-08-11T06:52:34.138Z,69.99
2022-08-11T06:55:55.643Z,69.64
2022-08-11T06:58:18.354Z,69.89
2022-08-11T07:00:48.619Z,68.24
2022-08-11T07:03:19.851Z,67.48
2022-08-11T07:05:51.947Z,67.32
2022-08-11T07:09:14.371Z,67.34
2022-08-11T07:12:17.427Z,65.71
2022-08-11T07:15:09.357Z,65.44
2022-08-11T07:17:43.812Z,65.15
2022-08-11T07:20:31.961Z,64.00
2022-08-11T07:23:20.459Z,64.78
2022-08-11T07:26:08.710Z,64.22
2022-08-11T07:28:59.767Z,62.18
2022-08-11T07:31:33.513Z,63.60
2022-08-11T07:34:15.904Z,62.31
2022-08-11T07:36:51.407Z,61.97
2022-08-11T07:39:22.650Z,62.36
2022-08-11T07:41:52.709Z,60.14
2022-08-11T07:44:29.424Z,60.82
2022-08-11T07:47:18.759Z,60.08
2022-08-11T07:50:05.003Z,59.13
2022-08-11T07:52:38.338Z,59.98
2022-08-11T07:55:10.423Z,59.71
2022-08-11T07:58:15.050Z,58.82
2022-08-11T08:01:10.232Z,58.26
2022-08-11T08:04:02.566Z,58.17
2022-08-11T08:06:51.431Z,57.06
2022-08-11T08:09:38.660Z,57.21
2022-08-11T08:12:25.316Z,56.17
2022-08-11T08:15:12.568Z,56.48
2022-08-11T08:18:08.552Z,56.18
2022-08-11T08:20:46.810Z,55.62
2022-08-11T08:23:15.206Z,54.32
2022-08-11T08:25:45.557Z,53.63
2022-08-11T08:28:18.157Z,51.98
2022-08-11T08:30:48.392Z,50.94
2022-08-11T08:33:21.162Z,51.29
2022-08-11T08:35:55.789Z,51.11
2022-08-11T08:38:25.395Z,51.28
2022-08-11T08:40:56.481Z,50.88
2022-08-11T08:43:25.657Z,49.52
2022-08-11T08:45:57.023Z,48.02
2022-08-11T08:48:27.885Z,48.72
2022-08-11T08:51:16.740Z,46.76
2022-08-11T08:53:53.461Z,47.26
2022-08-11T08:56:28.447Z,48.09
2022-08-11T08:58:58.038Z,48.46
2022-08-11T09:01:26.675Z,47.19
2022-08-11T09:04:06.604Z,45.36
2022-08-11T09:06:43.060Z,44.77
2022-08-11T09:09:13.311Z,44.35
2022-08-11T09:11:53.632Z,44.50
2022-08-11T09:14:23.651Z,44.50
2022-08-11T09:16:52.205Z,44.29
2022-08-11T09:19:22.577Z,42.55
2022-08-11T09:22:06.150Z,42.24
2022-08-11T09:24:52.480Z,42.89
2022-08-11T09:27:21.639Z,42.50
2022-08-11T09:29:50.369Z,42.23
2022-08-11T09:32:21.411Z,42.57
2022-08-11T09:34:52.069Z,42.64
2022-08-11T09:37:56.026Z,43.48
2022-08-11T09:40:31.456Z,42.90
2022-08-11T09:43:20.217Z,40.01
2022-08-11T09:45:53.527Z,40.59
2022-08-11T09:48:22.328Z,40.13
2022-08-11T09:50:55.604Z,40.25
2022-08-11T09:53:35.711Z,39.57
2022-08-11T09:56:21.063Z,39.47
2022-08-11T09:58:49.395Z,39.64
2022-08-11T10:01:27.625Z,39.30
2022-08-11T10:04:01.801Z,39.46
2022-08-11T10:06:54.068Z,40.02
2022-08-11T10:09:25.339Z,38.28
2022-08-11T10:11:58.005Z,37.27
2022-08-11T10:14:45.470Z,38.41
2022-08-11T10:17:15.028Z,37.61
2022-08-11T10:19:44.764Z,37.76
2022-08-11T10:22:51.061Z,37.51
2022-08-11T10:25:37.518Z,38.69
2022-08-11T10:28:33.057Z,36.76
2022-08-11T10:31:16.493Z,35.95
2022-08-11T10:34:04.693Z,37.62
2022-08-11T10:36:35.685Z,36.23
2022-08-11T10:39:07.577Z,35.72
2022-08-11T10:42:07.746Z,35.76
2022-08-11T10:44:42.969Z,36.76
2022-08-11T10:47:31.662Z,36.90
2022-08-11T10:50:17.702Z,36.74
2022-08-11T10:53:04.054Z,35.84
2022-08-11T10:55:51.715Z,36.39
2022-08-11T10:58:37.819Z,36.11
2022-08-11T11:01:06.764Z,35.71
2022-08-11T11:03:36.810Z,34.85
2022-08-11T11:06:12.555Z,35.31
2022-08-11T11:09:04.159Z,33.47
2022-08-11T11:11:55.111Z,35.26
2022-08-11T11:14:41.631Z,35.66
2022-08-11T11:17:32.808Z,32.70
2022-08-11T11:20:02.091Z,32.64
2022-08-11T11:22:39.980Z,32.72
2022-08-11T11:25:22.949Z,33.31
2022-08-11T11:28:07.463Z,33.41
2022-08-11T11:30:41.305Z,33.22
2022-08-11T11:33:14.901Z,34.36
2022-08-11T11:35:51.049Z,32.39
2022-08-11T11:38:19.597Z,32.29
2022-08-11T11:41:08.981Z,32.19
2022-08-11T11:43:38.736Z,31.91
2022-08-11T11:46:10.900Z,31.64
2022-08-11T11:48:39.703Z,32.93
2022-08-11T11:51:08.139Z,31.09
2022-08-11T11:53:37.718Z,31.45
2022-08-11T11:56:06.614Z,31.66
2022-08-11T11:58:52.143Z,31.05
2022-08-11T12:01:25.307Z,32.17
2022-08-11T12:03:55.605Z,31.89
2022-08-11T12:06:25.395Z,32.21
2022-08-11T12:08:55.558Z,31.62
2022-08-11T12:11:43.578Z,32.26
2022-08-11T12:14:12.687Z,31.48
2022-08-11T12:16:43.939Z,31.34
2022-08-11T12:19:14.970Z,30.32
2022-08-11T12:22:05.190Z,29.63
2022-08-11T12:24:51.189Z,30.08
2022-08-11T12:27:25.335Z,30.53
2022-08-11T12:30:00.173Z,30.68
2022-08-11T12:32:33.301Z,33.05
2022-08-11T12:35:01.999Z,32.04
2022-08-11T12:37:33.277Z,31.47
2022-08-11T12:41:11.173Z,31.84
2022-08-11T12:43:37.407Z,29.86
2022-08-11T12:46:09.476Z,29.70
2022-08-11T12:49:13.584Z,28.84
2022-08-11T12:52:13.551Z,28.99
2022-08-11T12:55:13.938Z,28.15
2022-08-11T12:58:03.557Z,28.82
2022-08-11T13:00:49.511Z,28.82
2022-08-11T13:03:38.448Z,27.72
2022-08-11T13:06:09.564Z,28.18
2022-08-11T13:08:39.589Z,28.95
2022-08-11T13:11:56.985Z,28.76
2022-08-11T13:14:15.508Z,28.44
2022-08-11T13:17:02.683Z,27.90
2022-08-11T13:19:32.190Z,27.67
2022-08-11T13:22:02.547Z,27.57
2022-08-11T13:24:34.118Z,28.12
2022-08-11T13:27:03.120Z,27.32
2022-08-11T13:29:31.363Z,28.19
2022-08-11T13:32:01.016Z,29.42
2022-08-11T13:34:31.262Z,29.10
2022-08-11T13:37:04.294Z,30.82
2022-08-11T13:39:33.807Z,30.06
2022-08-11T13:42:03.772Z,30.59
2022-08-11T13:44:35.976Z,30.52
2022-08-11T13:47:06.579Z,30.55
2022-08-11T13:49:40.996Z,31.28
2022-08-11T13:52:14.162Z,30.30
2022-08-11T13:54:43.598Z,29.70
2022-08-11T13:58:07.180Z,29.99
2022-08-11T14:00:13.299Z,29.51
2022-08-11T14:02:54.851Z,29.53
2022-08-11T14:05:27.619Z,29.83
2022-08-11T14:08:01.392Z,29.57
2022-08-11T14:10:32.903Z,29.58
2022-08-11T14:13:21.818Z,29.35
2022-08-11T14:15:51.226Z,28.67
2022-08-11T14:18:20.905Z,29.01
2022-08-11T14:21:16.780Z,28.08
2022-08-11T14:23:48.072Z,28.33
2022-08-11T14:26:31.678Z,28.16
2022-08-11T14:29:03.268Z,28.94
2022-08-11T14:31:33.251Z,28.57
2022-08-11T14:34:03.495Z,29.75
2022-08-11T14:36:34.102Z,28.88
2022-08-11T14:39:07.186Z,28.83
2022-08-11T14:42:10.087Z,28.60
2022-08-11T14:45:02.008Z,29.22
2022-08-11T14:47:32.030Z,29.18
2022-08-11T14:50:11.848Z,29.06
2022-08-11T14:52:45.911Z,29.65
2022-08-11T14:55:33.178Z,29.64
2022-08-11T14:58:02.133Z,29.28
2022-08-11T15:00:31.603Z,30.25
2022-08-11T15:03:12.092Z,30.55
2022-08-11T15:05:55.939Z,29.99
2022-08-11T15:08:47.793Z,30.17
2022-08-11T15:11:37.492Z,29.76
2022-08-11T15:14:08.291Z,31.15
2022-08-11T15:16:55.578Z,30.63
2022-08-11T15:19:27.519Z,29.43
2022-08-11T15:22:13.317Z,30.06
2022-08-11T15:24:41.607Z,30.37
2022-08-11T15:27:31.337Z,29.76
2022-08-11T15:30:32.475Z,30.16
2022-08-11T15:33:22.156Z,30.89
2022-08-11T15:36:08.138Z,31.07
2022-08-11T15:38:37.460Z,31.91
2022-08-11T15:41:24.440Z,31.12
2022-08-11T15:44:13.091Z,30.54
2022-08-11T15:46:43.901Z,31.36
2022-08-11T15:49:21.971Z,31.40
2022-08-11T15:51:52.426Z,32.57
2022-08-11T15:54:23.460Z,32.11
2022-08-11T15:56:53.207Z,32.30
2022-08-11T15:59:43.058Z,32.41
2022-08-11T16:02:32.197Z,32.79
2022-08-11T16:05:02.537Z,33.90
2022-08-11T16:07:40.472Z,34.72
2022-08-11T16:10:18.661Z,34.88
2022-08-11T16:13:21.890Z,35.96
2022-08-11T16:16:14.345Z,36.01
2022-08-11T16:18:47.249Z,36.12
2022-08-11T16:21:33.487Z,35.75
2022-08-11T16:24:07.476Z,36.29
2022-08-11T16:27:09.353Z,36.93
2022-08-11T16:29:28.238Z,36.91
2022-08-11T16:32:15.738Z,36.49
2022-08-11T16:35:03.157Z,36.39
2022-08-11T16:37:50.267Z,37.44
2022-08-11T16:40:19.387Z,37.36
2022-08-11T16:43:10.049Z,37.64
2022-08-11T16:45:58.843Z,38.64
2022-08-11T16:48:35.403Z,39.15
2022-08-11T16:51:06.760Z,38.95
2022-08-11T16:53:54.908Z,38.79
2022-08-11T16:56:26.942Z,38.92
2022-08-11T16:59:15.329Z,39.22
2022-08-11T17:01:46.532Z,40.44
2022-08-11T17:04:40.185Z,42.46
2022-08-11T17:07:42.385Z,42.83
2022-08-11T17:10:51.156Z,41.88
2022-08-11T17:13:35.584Z,42.18
2022-08-11T17:16:07.850Z,43.22
2022-08-11T17:18:44.343Z,44.54
2022-08-11T17:21:20.195Z,44.72
2022-08-11T17:23:50.669Z,45.36
2022-08-11T17:26:25.642Z,45.13
2022-08-11T17:28:56.760Z,46.21
2022-08-11T17:31:43.667Z,47.48
2022-08-11T17:34:30.048Z,47.71
2022-08-11T17:37:00.637Z,49.00
2022-08-11T17:39:31.411Z,49.01
2022-08-11T17:42:17.782Z,47.63
2022-08-11T17:45:04.445Z,45.17
2022-08-11T17:47:51.108Z,45.73
2022-08-11T17:50:20.284Z,45.43
2022-08-11T17:53:07.512Z,45.11
2022-08-11T17:56:02.774Z,44.74
2022-08-11T17:58:51.795Z,44.70
2022-08-11T18:01:23.357Z,45.25
2022-08-11T18:03:54.591Z,46.05
2022-08-11T18:06:34.444Z,46.78
2022-08-11T18:09:29.222Z,47.76
2022-08-11T18:12:15.304Z,47.97
2022-08-11T18:15:04.571Z,49.51
2022-08-11T18:17:51.068Z,50.72
2022-08-11T18:20:37.433Z,51.78
2022-08-11T18:23:40.482Z,52.41
2022-08-11T18:26:36.753Z,52.99
2022-08-11T18:29:22.891Z,53.37
2022-08-11T18:32:09.003Z,53.17
2022-08-11T18:34:56.428Z,53.77
2022-08-11T18:37:45.227Z,54.37
2022-08-11T18:40:34.622Z,55.16
2022-08-11T18:43:27.164Z,55.41
2022-08-11T18:46:17.897Z,56.51
2022-08-11T18:49:14.493Z,55.75
2022-08-11T18:52:05.639Z,55.46
2022-08-11T18:54:53.730Z,56.02
2022-08-11T18:57:54.179Z,55.90
2022-08-11T19:00:42.754Z,56.94
2022-08-11T19:03:30.464Z,58.19
2022-08-11T19:06:39.263Z,58.41
2022-08-11T19:09:26.273Z,58.91
2022-08-11T19:12:12.514Z,59.60
2022-08-11T19:14:59.105Z,59.93
2022-08-11T19:17:46.878Z,60.59
2022-08-11T19:20:34.518Z,62.13
2022-08-11T19:23:22.035Z,63.89
2022-08-11T19:26:08.267Z,64.36
2022-08-11T19:28:55.899Z,65.37
2022-08-11T19:31:44.841Z,67.00
2022-08-11T19:34:32.696Z,67.70
2022-08-11T19:37:22.145Z,68.92
2022-08-11T19:40:11.096Z,69.75
2022-08-11T19:42:56.876Z,70.58
2022-08-11T19:45:42.964Z,70.50
2022-08-11T19:48:32.567Z,70.32
2022-08-11T19:51:20.299Z,70.81
2022-08-11T19:54:06.909Z,70.61
2022-08-11T19:56:53.028Z,70.86
2022-08-11T19:59:40.938Z,70.39
2022-08-11T20:02:27.131Z,70.97
2022-08-11T20:05:13.454Z,71.48
2022-08-11T20:08:00.913Z,72.27
2022-08-11T20:10:47.846Z,72.25
2022-08-11T20:13:34.657Z,72.37
2022-08-11T20:16:21.068Z,71.44
2022-08-11T20:19:08.316Z,72.15
2022-08-11T20:21:54.445Z,73.34
2022-08-11T20:24:41.753Z,72.59
2022-08-11T20:27:27.543Z,73.23
2022-08-11T20:30:15.289Z,72.67
2022-08-11T20:33:01.046Z,73.29
2022-08-11T20:35:47.463Z,73.20
2022-08-11T20:38:34.184Z,73.59
2022-08-11T20:41:22.005Z,73.24
2022-08-11T20:44:09.664Z,74.05
2022-08-11T20:46:57.136Z,74.36
2022-08-11T20:49:48.806Z,74.59
2022-08-11T20:52:39.487Z,74.83
2022-08-11T20:55:51.274Z,74.73
2022-08-11T21:01:42.168Z,73.97
2022-08-11T21:04:28.170Z,74.72
2022-08-11T21:07:23.590Z,75.50
2022-08-11T21:10:23.215Z,74.90
2022-08-11T21:13:25.728Z,75.56
2022-08-11T21:16:25.321Z,75.73
2022-08-11T21:19:16.653Z,76.34
2022-08-11T21:22:03.801Z,75.66
2022-08-11T21:24:51.094Z,75.87
2022-08-11T21:27:36.877Z,76.02
2022-08-11T21:30:23.847Z,76.22
2022-08-11T21:33:11.916Z,76.30
2022-08-11T21:35:57.883Z,75.57
2022-08-11T21:38:43.831Z,75.77
2022-08-11T21:41:29.817Z,75.59
2022-08-11T21:44:16.217Z,75.90
2022-08-11T21:47:02.269Z,75.76
2022-08-11T21:49:49.908Z,76.08
2022-08-11T21:52:36.127Z,76.03
2022-08-11T21:55:21.930Z,76.31
2022-08-11T21:58:08.033Z,76.59
2022-08-11T22:00:53.955Z,76.20
2022-08-11T22:03:49.288Z,76.38
2022-08-11T22:06:37.779Z,78.28
2022-08-11T22:09:23.237Z,78.24
2022-08-11T22:12:34.375Z,78.33
2022-08-11T22:15:14.867Z,77.92
2022-08-11T22:18:00.407Z,77.75
2022-08-11T22:20:47.546Z,78.20
2022-08-11T22:23:36.275Z,77.23
2022-08-11T22:26:23.470Z,76.97
2022-08-11T22:29:10.127Z,77.48
2022-08-11T22:31:56.586Z,78.09
2022-08-11T22:34:52.822Z,77.96
2022-08-11T22:37:39.556Z,77.07
2022-08-11T22:40:28.524Z,76.92
2022-08-11T22:43:14.276Z,77.56
2022-08-11T22:46:00.183Z,77.16
2022-08-11T22:48:48.153Z,77.01
2022-08-11T22:51:34.439Z,77.84
2022-08-11T22:54:21.304Z,79.48
2022-08-11T22:57:09.164Z,79.04
2022-08-11T22:59:55.761Z,79.62
2022-08-11T23:02:42.146Z,78.43
2022-08-11T23:05:28.644Z,79.19
2022-08-11T23:08:14.815Z,79.67
2022-08-11T23:11:00.714Z,80.07
2022-08-11T23:13:47.936Z,81.60
2022-08-11T23:16:34.260Z,81.88
2022-08-11T23:20:09.776Z,81.53
2022-08-11T23:22:36.965Z,82.16
2022-08-11T23:25:33.255Z,82.44
2022-08-11T23:28:21.048Z,82.45
2022-08-11T23:31:08.344Z,82.35
2022-08-11T23:33:56.735Z,82.13
2022-08-11T23:36:47.663Z,82.40
2022-08-11T23:39:33.829Z,82.56
2022-08-11T23:42:19.672Z,82.73
2022-08-11T23:45:09.684Z,83.16
2022-08-11T23:47:57.825Z,83.79
2022-08-11T23:50:44.204Z,84.06
2022-08-11T23:53:31.042Z,83.72
2022-08-11T23:56:16.856Z,84.46
2022-08-11T23:59:02.738Z,85.17
